KMFE/MFE METAR and TAF weather

Enter ICAO airport designator
Station Type Date Time Source
KMFE METAR 2019/10/21 01:53 UTC NOAA

KMFE 210153Z 15011G19KT 9SM BKN017 BKN021 OVC037 28/25 A2974 RMK AO2 RAB07E19B42E48 SLP070 P0000 T02830250


Station Type Date Time Source
KMFE Decoded METAR 2019/10/21 01:53 UTC NOAA

MCALLEN MILLER INTERNATIONAL AIRPORT , TX, United States (KMFE) 26-11N 98-15W 38M
Oct 20, 2019 - 09:53 PM EDT / 2019.10.21 0153 UTC
Wind: from the SSE (150 degrees) at 13 MPH (11 KT) gusting to 22 MPH (19 KT):0
Visibility: 9 mile(s):0
Sky conditions: overcast
Precipitation last hour: A trace
Temperature: 82.9 F (28.3 C)
Dew Point: 77.0 F (25.0 C)
Relative Humidity: 82%
Pressure (altimeter): 29.74 in. Hg (1007 hPa)
ob: KMFE 210153Z 15011G19KT 9SM BKN017 BKN021 OVC037 28/25 A2974 RMK AO2 RAB07E19B42E48 SLP070 P0000 T02830250
cycle: 2

Station Type Date Time Source
KMFE TAF 2019/10/20 19:58 UTC NOAA

TAF
AMD KMFE 201858Z 2019/2118 15010KT P6SM VCSH SCT020 BKN050
FM210300 15011KT P6SM SCT023 BKN030 PROB30 2106/2109 4SM TSRA BR BKN023CB
FM210900 16010KT P6SM SCT019 OVC021 PROB30 2109/2112 4SM TSRA BR BKN019CB
FM211200 15008KT P6SM VCSH SCT017 BKN023 PROB30 2112/2118 4SM TSRA BR BKN017CB

Example: see airport list